Time;durP1;ratioP1;P1;durP2;ratioP2;P2;SDS_P1;SDS_P2;PMS_P1;PMS_P2;Temp;Humidity;BMP_temperature;BMP_pressure;BME280_temperature;BME280_humidity;BME280_pressure;Samples;Min_cycle;Max_cycle;Signal;HPM_P1;HPM_P2
2021/12/13 00:00:43;;;;;;;24.80;2.70;;;;;;;9.88;100.00;102373.56;5071400;28;20040;-35
2021/12/13 00:03:20;;;;;;;28.60;3.15;;;;;;;9.88;100.00;102373.56;5071602;28;20493;-36
2021/12/13 00:05:51;;;;;;;21.02;2.90;;;;;;;9.90;100.00;102376.94;5055105;28;20041;-33
2021/12/13 00:08:21;;;;;;;24.55;3.08;;;;;;;9.90;100.00;102377.78;5071871;28;20055;-34
2021/12/13 00:10:53;;;;;;;26.88;2.70;;;;;;;9.92;100.00;102383.09;5071753;28;20053;-37
2021/12/13 00:13:23;;;;;;;;;;;;;;;9.89;100.00;102376.09;5071435;28;20489;-30
2021/12/13 00:15:57;;;;;;;24.42;2.47;;;;;;;9.89;100.00;102390.03;5071607;28;19920;-31
2021/12/13 00:18:30;;;;;;;30.50;3.60;;;;;;;9.95;100.00;102380.63;5068644;28;20049;-29
2021/12/13 00:21:07;;;;;;;24.95;2.95;;;;;;;9.96;100.00;102387.91;5071133;28;20063;-34
2021/12/13 00:23:44;;;;;;;23.65;3.35;;;;;;;9.96;100.00;102389.84;5068928;28;20052;-36
2021/12/13 00:26:20;;;;;;;22.90;2.63;;;;;;;9.97;100.00;102384.03;5071445;28;20055;-29
2021/12/13 00:28:50;;;;;;;21.50;3.20;;;;;;;9.98;100.00;102385.72;5070797;28;20445;-33
2021/12/13 00:31:44;;;;;;;23.60;3.30;;;;;;;9.99;100.00;102384.56;5071361;28;20515;-36
2021/12/13 00:34:33;;;;;;;20.40;2.50;;;;;;;9.99;100.00;102387.38;5069935;28;20052;-33
2021/12/13 00:37:07;;;;;;;17.85;2.83;;;;;;;9.96;100.00;102387.91;5056995;28;20051;-37
2021/12/13 00:39:43;;;;;;;23.83;2.58;;;;;;;9.98;100.00;102385.72;5068581;28;20084;-38
2021/12/13 00:42:12;;;;;;;17.13;2.30;;;;;;;9.97;100.00;102389.59;5070666;28;20144;-32
2021/12/13 00:44:44;;;;;;;16.92;2.25;;;;;;;9.99;100.00;102390.16;5066267;28;20047;-28
2021/12/13 00:47:14;;;;;;;;;;;;;;;9.93;100.00;102388.41;5055651;28;20052;-36
2021/12/13 00:49:48;;;;;;;17.77;2.53;;;;;;;9.90;100.00;102391.72;5070471;28;19943;-34
2021/12/13 00:52:18;;;;;;;20.70;2.35;;;;;;;9.92;100.00;102389.50;5071169;28;20064;-34
2021/12/13 00:54:47;;;;;;;20.27;2.70;;;;;;;9.93;100.00;102391.19;5070640;28;20049;-30
2021/12/13 00:57:48;;;;;;;22.98;2.50;;;;;;;9.94;100.00;102392.91;5070960;28;20044;-33
2021/12/13 01:00:22;;;;;;;20.42;2.65;;;;;;;9.88;100.00;102388.34;5068221;28;20045;-36
2021/12/13 01:02:58;;;;;;;22.13;2.35;;;;;;;9.89;100.00;102392.81;5070892;28;20052;-33
2021/12/13 01:05:48;;;;;;;20.45;2.25;;;;;;;9.88;100.00;102393.06;5070818;28;20048;-33
2021/12/13 01:08:47;;;;;;;15.90;2.30;;;;;;;9.86;100.00;102384.13;5070529;28;20049;-32
2021/12/13 01:11:35;;;;;;;19.17;2.22;;;;;;;9.85;100.00;102397.22;5048688;28;20066;-29
2021/12/13 01:14:40;;;;;;;20.63;2.42;;;;;;;9.88;100.00;102387.50;5070451;28;20048;-30
2021/12/13 01:17:18;;;;;;;25.55;2.53;;;;;;;9.85;100.00;102388.00;5038860;28;20060;-35
2021/12/13 01:19:52;;;;;;;14.48;1.98;;;;;;;9.86;100.00;102392.47;5070601;28;20421;-39
2021/12/13 01:22:41;;;;;;;21.75;2.50;;;;;;;9.85;100.00;102388.84;5070875;28;20064;-32
2021/12/13 01:25:21;;;;;;;19.83;2.92;;;;;;;9.82;100.00;102389.34;5069969;28;20045;-38
2021/12/13 01:27:58;;;;;;;23.33;3.10;;;;;;;9.83;100.00;102398.56;5071044;28;20048;-35
2021/12/13 01:30:31;;;;;;;23.08;2.63;;;;;;;9.83;100.00;102402.19;5069796;28;20049;-38
2021/12/13 01:33:03;;;;;;;21.40;2.80;;;;;;;9.82;100.00;102408.88;5070780;28;20405;-39
2021/12/13 01:35:34;;;;;;;15.63;3.03;;;;;;;9.82;100.00;102411.66;5070518;28;20063;-35
2021/12/13 01:38:10;;;;;;;17.13;2.35;;;;;;;9.84;100.00;102412.25;5069979;28;20501;-38
2021/12/13 01:40:43;;;;;;;19.58;2.60;;;;;;;9.85;100.00;102411.16;5070515;28;20044;-32
2021/12/13 01:43:14;;;;;;;24.98;3.08;;;;;;;9.82;100.00;102414.44;5070569;28;20505;-38
2021/12/13 01:45:44;;;;;;;20.30;2.53;;;;;;;9.82;100.00;102408.88;5069609;28;20059;-32
2021/12/13 01:48:20;;;;;;;19.23;2.78;;;;;;;9.84;100.00;102411.41;5070984;28;20457;-31
2021/12/13 01:50:53;;;;;;;18.65;2.53;;;;;;;9.83;100.00;102418.94;5070347;28;20057;-38
2021/12/13 01:53:36;;;;;;;22.08;2.67;;;;;;;9.82;100.00;102421.97;5069925;28;20056;-36
2021/12/13 01:56:23;;;;;;;19.10;2.42;;;;;;;9.80;100.00;102416.66;5070084;28;20490;-39
2021/12/13 01:58:51;;;;;;;13.68;2.03;;;;;;;9.77;100.00;102416.34;5070280;28;20052;-30
2021/12/13 02:01:24;;;;;;;14.98;2.10;;;;;;;9.78;100.00;102418.03;5068795;28;20045;-32
2021/12/13 02:03:56;;;;;;;17.77;2.28;;;;;;;9.76;100.00;102412.72;5070534;28;20041;-40
2021/12/13 02:06:34;;;;;;;19.73;2.38;;;;;;;9.74;100.00;102416.84;5070083;28;20044;-35
2021/12/13 02:09:08;;;;;;;15.27;2.15;;;;;;;9.73;100.00;102415.16;5070744;28;20052;-31
2021/12/13 02:11:36;;;;;;;15.45;2.03;;;;;;;9.73;100.00;102412.38;5070110;28;20489;-38
2021/12/13 02:14:13;;;;;;;14.88;2.03;;;;;;;9.71;100.00;102407.03;5069720;28;20067;-35
2021/12/13 02:16:58;;;;;;;15.82;2.45;;;;;;;9.71;100.00;102404.25;5069972;28;20382;-31
2021/12/13 02:19:32;;;;;;;15.88;1.90;;;;;;;9.70;100.00;102412.88;5072433;28;20055;-32
2021/12/13 02:22:27;;;;;;;11.07;1.50;;;;;;;9.69;100.00;102420.38;5073563;28;20048;-35
2021/12/13 02:24:58;;;;;;;13.88;1.75;;;;;;;9.67;100.00;102426.22;5066666;28;20052;-40
2021/12/13 02:27:31;;;;;;;13.95;1.98;;;;;;;9.67;100.00;102426.22;5073289;28;20044;-34
2021/12/13 02:30:01;;;;;;;11.98;1.80;;;;;;;9.71;100.00;102428.50;5073965;28;20135;-35
2021/12/13 02:32:35;;;;;;;13.95;2.00;;;;;;;9.71;100.00;102428.50;5073484;28;20127;-32
2021/12/13 02:35:06;;;;;;;14.40;2.47;;;;;;;9.71;100.00;102426.56;5073236;28;20048;-37
2021/12/13 02:37:36;;;;;;;9.43;1.60;;;;;;;9.74;100.00;102417.69;5073408;28;20056;-36
2021/12/13 02:40:07;;;;;;;11.50;1.90;;;;;;;9.75;100.00;102422.16;5073885;28;20044;-34
2021/12/13 02:42:36;;;;;;;13.65;1.92;;;;;;;9.74;100.00;102423.25;5072881;28;20044;-34
2021/12/13 02:45:14;;;;;;;14.38;1.77;;;;;;;9.77;100.00;102422.75;5072463;28;20075;-32
2021/12/13 02:47:48;;;;;;;9.38;1.60;;;;;;;9.78;100.00;102420.81;5072469;28;20050;-34
2021/12/13 02:50:24;;;;;;;12.80;2.20;;;;;;;9.80;100.00;102415.81;5073707;28;20498;-34
2021/12/13 02:52:53;;;;;;;16.15;1.92;;;;;;;9.78;100.00;102423.59;5073085;28;20097;-33
2021/12/13 02:55:28;;;;;;;15.20;2.50;;;;;;;9.77;100.00;102417.19;5073023;28;20053;-33
2021/12/13 02:57:59;;;;;;;15.60;2.10;;;;;;;9.77;100.00;102411.59;5073036;28;20127;-35
2021/12/13 03:00:31;;;;;;;13.68;2.20;;;;;;;9.74;100.00;102412.13;5073499;28;20508;-31
2021/12/13 03:03:01;;;;;;;13.83;2.30;;;;;;;9.74;100.00;102395.38;5072456;28;20044;-28
2021/12/13 03:05:33;;;;;;;11.63;2.40;;;;;;;9.73;100.00;102404.00;5062839;28;20283;-33
2021/12/13 03:08:06;;;;;;;;;;;;;;;9.67;100.00;102408.66;5073185;28;20056;-38
2021/12/13 03:10:37;;;;;;;15.13;2.00;;;;;;;9.64;100.00;102398.00;5072566;28;19971;-38
2021/12/13 03:13:05;;;;;;;13.65;2.15;;;;;;;9.65;100.00;102399.69;5072672;28;20090;-36
2021/12/13 03:15:34;;;;;;;11.27;1.80;;;;;;;9.66;100.00;102398.59;5072581;28;20133;-34
2021/12/13 03:18:12;;;;;;;15.70;2.58;;;;;;;9.64;100.00;102406.38;5072646;28;20143;-32
2021/12/13 03:21:11;;;;;;;16.10;2.30;;;;;;;9.63;100.00;102404.69;5070921;28;20044;-33
2021/12/13 03:23:57;;;;;;;10.90;1.75;;;;;;;9.62;100.00;102405.78;5055567;28;20405;-36
2021/12/13 03:27:04;;;;;;;17.15;2.78;;;;;;;9.62;100.00;102406.63;5064319;28;20432;-31
2021/12/13 03:29:44;;;;;;;13.98;2.17;;;;;;;9.60;100.00;102397.66;5052211;28;20048;-36
2021/12/13 03:32:14;;;;;;;15.82;2.60;;;;;;;9.59;100.00;102395.97;5072841;28;20704;-30
2021/12/13 03:34:52;;;;;;;14.93;2.83;;;;;;;9.58;100.00;102408.25;5071905;28;20046;-37
2021/12/13 03:37:24;;;;;;;18.20;2.38;;;;;;;9.58;100.00;102411.03;5072139;28;20059;-41
2021/12/13 03:39:59;;;;;;;18.80;2.55;;;;;;;9.57;100.00;102412.13;5071775;28;20394;-29
2021/12/13 03:42:30;;;;;;;12.43;2.20;;;;;;;9.57;100.00;102402.94;5072853;28;20049;-31
2021/12/13 03:45:05;;;;;;;14.40;2.20;;;;;;;9.55;100.00;102403.19;5071952;28;20102;-33
2021/12/13 03:47:38;;;;;;;11.18;2.00;;;;;;;9.56;100.00;102398.47;5072475;28;20059;-34
2021/12/13 03:50:10;;;;;;;11.30;2.17;;;;;;;9.57;100.00;102403.78;5071724;28;20040;-34
2021/12/13 03:52:42;;;;;;;15.32;2.33;;;;;;;9.57;100.00;102400.16;5071976;28;20060;-33
2021/12/13 03:55:15;;;;;;;13.38;2.60;;;;;;;9.55;100.00;102403.19;5071772;28;20055;-35
2021/12/13 03:57:47;;;;;;;17.25;2.58;;;;;;;9.56;100.00;102404.88;5071596;28;20048;-32
2021/12/13 04:00:17;;;;;;;;;;;;;;;9.50;100.00;102397.53;5072192;28;20047;-30
2021/12/13 04:02:46;;;;;;;14.23;2.38;;;;;;;9.49;100.00;102395.00;5071778;28;19932;-33
2021/12/13 04:05:17;;;;;;;15.98;2.30;;;;;;;9.52;100.00;102395.34;5071250;28;20098;-33
2021/12/13 04:07:47;;;;;;;11.10;2.42;;;;;;;9.53;100.00;102379.47;5072103;28;20421;-28
2021/12/13 04:10:19;;;;;;;12.88;2.53;;;;;;;9.52;100.00;102395.34;5071715;28;20131;-37
2021/12/13 04:12:52;;;;;;;11.98;2.63;;;;;;;9.52;100.00;102391.69;5071514;28;20493;-34
2021/12/13 04:15:29;;;;;;;11.05;2.47;;;;;;;9.51;100.00;102393.66;5071780;28;20469;-32
2021/12/13 04:18:12;;;;;;;15.95;3.05;;;;;;;9.51;100.00;102402.00;5061780;28;20055;-28
2021/12/13 04:20:43;;;;;;;16.00;2.67;;;;;;;9.50;100.00;102399.47;5070843;28;20498;-36
2021/12/13 04:23:16;;;;;;;13.82;2.65;;;;;;;9.50;100.00;102396.69;5071786;28;20045;-36
2021/12/13 04:25:50;;;;;;;13.20;2.40;;;;;;;9.50;100.00;102399.47;5070894;28;20342;-39
2021/12/13 04:28:21;;;;;;;14.88;2.88;;;;;;;9.50;100.00;102389.16;5061779;28;20052;-39
2021/12/13 04:30:53;;;;;;;15.60;2.97;;;;;;;9.50;100.00;102393.91;5071352;28;20117;-31
2021/12/13 04:33:24;;;;;;;16.30;2.88;;;;;;;9.50;100.00;102391.09;5059957;28;20577;-38
2021/12/13 04:35:57;;;;;;;12.77;2.50;;;;;;;9.49;100.00;102392.19;5071122;28;20040;-31
2021/12/13 04:38:32;;;;;;;12.23;2.50;;;;;;;9.49;100.00;102403.34;5071464;28;20048;-26
2021/12/13 04:41:02;;;;;;;15.05;2.55;;;;;;;9.49;100.00;102390.25;5070438;28;20173;-28
2021/12/13 04:43:35;;;;;;;16.75;2.63;;;;;;;9.49;100.00;102387.47;5070700;28;20490;-35
2021/12/13 04:46:05;;;;;;;14.13;2.72;;;;;;;9.47;100.00;102388.81;5070851;28;20048;-37
2021/12/13 04:48:38;;;;;;;17.35;2.88;;;;;;;9.49;100.00;102392.19;5070627;28;20040;-32
2021/12/13 04:51:10;;;;;;;13.93;2.92;;;;;;;9.50;100.00;102391.09;5070961;28;20417;-39
2021/12/13 04:53:41;;;;;;;14.75;2.70;;;;;;;9.48;100.00;102398.88;5068148;28;20041;-32
2021/12/13 04:56:12;;;;;;;16.25;2.67;;;;;;;9.47;100.00;102391.59;5069163;28;20052;-37
2021/12/13 04:58:42;;;;;;;16.90;3.00;;;;;;;9.46;100.00;102395.50;5070540;28;20051;-36
2021/12/13 05:01:13;;;;;;;15.25;2.88;;;;;;;9.46;100.00;102396.34;5070646;28;20060;-36
2021/12/13 05:03:44;;;;;;;15.00;2.88;;;;;;;9.46;100.00;102395.50;5070826;28;20040;-36
2021/12/13 05:06:17;;;;;;;15.48;3.03;;;;;;;9.47;100.00;102399.97;5071097;28;20072;-31
2021/12/13 05:08:46;;;;;;;12.80;2.80;;;;;;;9.48;100.00;102407.22;5070395;28;20140;-33
2021/12/13 05:11:17;;;;;;;16.60;2.60;;;;;;;9.47;100.00;102397.19;5070829;28;20045;-33
2021/12/13 05:13:50;;;;;;;12.65;2.38;;;;;;;9.48;100.00;102407.22;5068495;28;20049;-36
2021/12/13 05:16:20;;;;;;;12.93;2.40;;;;;;;9.49;100.00;102417.28;5068356;28;20063;-35
2021/12/13 05:18:51;;;;;;;9.88;2.40;;;;;;;9.48;100.00;102423.94;5066739;28;20106;-35
2021/12/13 05:21:25;;;;;;;16.88;3.40;;;;;;;9.45;100.00;102425.28;5054527;28;20044;-37
2021/12/13 05:23:57;;;;;;;16.58;3.05;;;;;;;9.46;100.00;102420.56;5070240;28;20048;-37
2021/12/13 05:26:37;;;;;;;15.60;2.90;;;;;;;9.45;100.00;102425.28;5054191;28;20040;-29
2021/12/13 05:29:07;;;;;;;19.13;3.10;;;;;;;9.43;100.00;102418.28;5070044;28;20405;-30
2021/12/13 05:31:35;;;;;;;15.00;3.10;;;;;;;9.40;100.00;102421.56;5070571;28;20486;-34
2021/12/13 05:34:07;;;;;;;13.27;2.97;;;;;;;9.40;100.00;102419.63;5070593;28;20045;-33
2021/12/13 05:36:37;;;;;;;13.80;3.45;;;;;;;9.39;100.00;102422.69;5070023;28;20040;-37
2021/12/13 05:39:10;;;;;;;18.35;3.25;;;;;;;9.39;100.00;102415.19;5067498;28;20049;-35
2021/12/13 05:41:41;;;;;;;20.27;3.75;;;;;;;9.37;100.00;102422.97;5070622;28;20052;-37
2021/12/13 05:44:11;;;;;;;12.98;3.50;;;;;;;9.33;100.00;102425.41;5069734;28;20048;-36
2021/12/13 05:46:43;;;;;;;13.40;3.03;;;;;;;9.35;100.00;102424.31;5070669;28;20052;-32
2021/12/13 05:49:18;;;;;;;12.73;2.92;;;;;;;9.35;100.00;102429.88;5070182;28;20048;-31
2021/12/13 05:51:49;;;;;;;10.95;3.13;;;;;;;9.33;100.00;102422.59;5070237;28;20056;-35
2021/12/13 05:54:23;;;;;;;13.57;3.20;;;;;;;9.33;100.00;102425.41;5073086;28;20052;-35
2021/12/13 05:56:55;;;;;;;17.25;3.40;;;;;;;9.32;100.00;102422.84;5074359;28;20048;-34
2021/12/13 05:59:27;;;;;;;12.95;3.25;;;;;;;9.31;100.00;102429.53;5073309;28;20052;-36
2021/12/13 06:02:06;;;;;;;16.73;3.40;;;;;;;9.30;100.00;102420.31;5074374;28;20051;-35
2021/12/13 06:04:39;;;;;;;13.40;3.50;;;;;;;9.28;100.00;102424.47;5073447;28;20558;-36
2021/12/13 06:07:15;;;;;;;;;;;;;;;9.20;100.00;102425.72;5074778;28;20055;-33
2021/12/13 06:09:49;;;;;;;11.52;3.05;;;;;;;9.18;100.00;102416.78;5073597;28;19928;-31
2021/12/13 06:12:31;;;;;;;16.42;3.28;;;;;;;9.19;100.00;102421.22;5073875;28;20056;-32
2021/12/13 06:15:21;;;;;;;10.57;2.90;;;;;;;9.18;100.00;102427.94;5073604;28;20128;-31
2021/12/13 06:17:55;;;;;;;21.55;4.22;;;;;;;9.16;100.00;102424.53;5074092;28;20405;-34
2021/12/13 06:20:27;;;;;;;14.68;2.97;;;;;;;9.15;100.00;102436.78;5072984;28;20059;-36
2021/12/13 06:23:06;;;;;;;11.10;2.80;;;;;;;9.14;100.00;102429.53;5074144;28;20052;-39
2021/12/13 06:25:34;;;;;;;8.50;2.83;;;;;;;9.10;100.00;102433.91;5073084;28;20060;-36
2021/12/13 06:28:06;;;;;;;15.07;3.13;;;;;;;9.11;100.00;102429.16;5073899;28;20075;-33
2021/12/13 06:30:38;;;;;;;12.77;3.20;;;;;;;9.10;100.00;102436.69;5073292;28;20127;-33
2021/12/13 06:33:07;;;;;;;;;;;;;;;9.03;100.00;102432.34;5073803;28;20387;-37
2021/12/13 06:35:42;;;;;;;14.10;3.08;;;;;;;9.02;100.00;102437.06;5073364;28;19920;-34
2021/12/13 06:38:32;;;;;;;15.80;3.00;;;;;;;9.07;100.00;102439.97;5073674;28;20048;-36
2021/12/13 06:41:05;;;;;;;14.82;2.70;;;;;;;9.06;100.00;102443.84;5071940;28;20047;-35
2021/12/13 06:43:37;;;;;;;15.32;2.83;;;;;;;9.07;100.00;102444.69;5073943;28;20086;-29
2021/12/13 06:46:08;;;;;;;11.55;2.90;;;;;;;9.06;100.00;102443.84;5073179;28;20405;-33
2021/12/13 06:48:39;;;;;;;11.05;2.65;;;;;;;9.06;100.00;102441.06;5072971;28;20083;-36
2021/12/13 06:51:09;;;;;;;8.82;2.53;;;;;;;9.07;100.00;102450.25;5072822;28;20127;-34
2021/12/13 06:53:37;;;;;;;13.70;3.17;;;;;;;9.07;100.00;102451.09;5072709;28;20048;-35
2021/12/13 06:56:24;;;;;;;13.82;2.85;;;;;;;9.07;100.00;102447.47;5072945;28;20048;-29
2021/12/13 06:58:58;;;;;;;16.77;3.05;;;;;;;9.05;100.00;102446.88;5073506;28;20079;-33
2021/12/13 07:01:27;;;;;;;17.98;3.33;;;;;;;9.03;100.00;102449.06;5072243;28;20489;-34
2021/12/13 07:03:58;;;;;;;15.98;2.53;;;;;;;9.05;100.00;102458.00;5073458;28;20054;-39
2021/12/13 07:06:28;;;;;;;13.20;2.67;;;;;;;9.04;100.00;102457.16;5071845;28;20561;-35
2021/12/13 07:09:13;;;;;;;17.30;2.60;;;;;;;9.06;100.00;102471.69;5071714;28;20049;-30
2021/12/13 07:11:47;;;;;;;10.80;2.67;;;;;;;9.06;100.00;102471.69;5071818;28;20500;-36
2021/12/13 07:14:19;;;;;;;15.15;2.58;;;;;;;9.08;100.00;102472.28;5072086;28;20506;-34
2021/12/13 07:16:51;;;;;;;11.52;2.53;;;;;;;9.08;100.00;102466.72;5071400;28;20169;-37
2021/12/13 07:19:22;;;;;;;13.25;3.25;;;;;;;9.10;100.00;102467.31;5072069;28;20074;-30
2021/12/13 07:21:56;;;;;;;13.38;2.42;;;;;;;9.14;100.00;102473.22;5070510;28;20523;-36
2021/12/13 07:24:32;;;;;;;17.35;2.70;;;;;;;9.15;100.00;102463.78;5071569;28;20052;-34
2021/12/13 07:27:05;;;;;;;15.32;2.83;;;;;;;9.15;100.00;102467.41;5071110;28;20364;-34
2021/12/13 07:29:42;;;;;;;13.52;2.70;;;;;;;9.17;100.00;102476.38;5068864;28;20054;-33
2021/12/13 07:32:14;;;;;;;11.52;2.30;;;;;;;9.17;100.00;102473.59;5070550;28;20053;-29
2021/12/13 07:34:52;;;;;;;9.68;2.35;;;;;;;9.18;100.00;102480.84;5070381;28;20057;-34
2021/12/13 07:37:39;;;;;;;16.08;2.67;;;;;;;9.18;100.00;102477.22;5069745;28;20060;-33
2021/12/13 07:40:31;;;;;;;15.88;3.00;;;;;;;9.20;100.00;102489.75;5070946;28;20067;-30
2021/12/13 07:43:07;;;;;;;15.88;2.90;;;;;;;9.19;100.00;102488.06;5069701;28;20049;-35
2021/12/13 07:45:42;;;;;;;10.05;2.33;;;;;;;9.23;100.00;102489.28;5070102;28;20055;-33
2021/12/13 07:48:13;;;;;;;14.48;2.80;;;;;;;9.22;100.00;102490.38;5070803;28;20059;-36
2021/12/13 07:50:43;;;;;;;18.40;2.92;;;;;;;9.24;100.00;102495.69;5070519;28;20052;-37
2021/12/13 07:53:17;;;;;;;10.77;2.45;;;;;;;9.25;100.00;102489.88;5069703;28;20069;-36
2021/12/13 07:55:47;;;;;;;11.23;2.70;;;;;;;9.25;100.00;102497.38;5069714;28;20592;-36
2021/12/13 07:58:31;;;;;;;12.95;2.97;;;;;;;9.26;100.00;102501.84;5068102;28;20517;-36
2021/12/13 08:01:11;;;;;;;14.15;2.20;;;;;;;9.27;100.00;102503.53;5069680;28;20044;-37
2021/12/13 08:03:49;;;;;;;16.48;3.05;;;;;;;9.27;100.00;102504.38;5068637;28;20081;-36
2021/12/13 08:06:17;;;;;;;14.80;3.05;;;;;;;9.26;100.00;102511.06;5070335;28;20055;-32
2021/12/13 08:08:49;;;;;;;17.67;3.03;;;;;;;9.29;100.00;102502.19;5070010;28;20394;-36
2021/12/13 08:11:19;;;;;;;15.52;2.22;;;;;;;9.30;100.00;102515.03;5070454;28;20048;-32
2021/12/13 08:13:58;;;;;;;10.57;2.28;;;;;;;9.31;100.00;102513.09;5070404;28;20058;-35
2021/12/13 08:16:35;;;;;;;10.30;2.40;;;;;;;9.31;100.00;102513.94;5070532;28;20052;-33
2021/12/13 08:19:14;;;;;;;11.82;2.72;;;;;;;9.32;100.00;102523.16;5069582;28;20387;-35
2021/12/13 08:21:45;;;;;;;15.15;3.22;;;;;;;9.32;100.00;102515.63;5070268;28;20063;-39
2021/12/13 08:24:28;;;;;;;13.10;2.92;;;;;;;9.33;100.00;102517.31;5070109;28;20044;-35
2021/12/13 08:27:00;;;;;;;13.20;2.60;;;;;;;9.33;100.00;102531.25;5070015;28;20052;-27
2021/12/13 08:29:32;;;;;;;15.70;2.83;;;;;;;9.32;100.00;102529.56;5067886;28;20052;-39
2021/12/13 08:32:05;;;;;;;11.10;2.85;;;;;;;9.32;100.00;102529.56;5069812;28;20052;-38
2021/12/13 08:34:36;;;;;;;11.48;2.83;;;;;;;9.33;100.00;102528.47;5069813;28;20076;-36
2021/12/13 08:37:20;;;;;;;13.85;2.78;;;;;;;9.35;100.00;102530.16;5068746;28;20497;-36
2021/12/13 08:39:53;;;;;;;9.30;2.92;;;;;;;9.34;100.00;102534.88;5069090;28;20041;-33
2021/12/13 08:42:23;;;;;;;10.95;2.60;;;;;;;9.33;100.00;102538.78;5070454;28;20052;-30
2021/12/13 08:44:57;;;;;;;13.88;3.20;;;;;;;9.38;100.00;102535.25;5069507;28;20040;-32
2021/12/13 08:47:34;;;;;;;14.60;3.72;;;;;;;9.41;100.00;102529.13;5069693;28;20044;-27
2021/12/13 08:50:10;;;;;;;10.55;3.20;;;;;;;9.41;100.00;102532.78;5069438;28;20552;-32
2021/12/13 08:52:41;;;;;;;10.38;3.17;;;;;;;9.44;100.00;102534.22;5069990;28;20052;-35
2021/12/13 08:55:20;;;;;;;12.13;3.00;;;;;;;9.45;100.00;102535.91;5069134;28;20512;-33
2021/12/13 08:57:52;;;;;;;16.13;3.47;;;;;;;9.46;100.00;102548.75;5069966;28;20059;-32
2021/12/13 09:00:43;;;;;;;13.35;2.90;;;;;;;9.47;100.00;102551.28;5069121;28;20067;-34
2021/12/13 09:03:36;;;;;;;13.43;3.58;;;;;;;9.48;100.00;102558.56;5070319;28;20051;-33
2021/12/13 09:06:28;;;;;;;13.60;3.38;;;;;;;9.49;100.00;102570.53;5067125;28;20044;-29
2021/12/13 09:09:04;;;;;;;12.48;3.40;;;;;;;9.47;100.00;102569.94;5052909;28;20048;-30
2021/12/13 09:11:34;;;;;;;15.55;3.28;;;;;;;9.49;100.00;102576.97;5070097;28;20059;-37
2021/12/13 09:14:14;;;;;;;15.60;3.70;;;;;;;9.52;100.00;102575.63;5070543;28;20056;-30
2021/12/13 09:16:53;;;;;;;13.55;3.90;;;;;;;9.54;100.00;102579.84;5069005;28;20048;-34
2021/12/13 09:19:27;;;;;;;14.10;3.50;;;;;;;9.52;100.00;102579.25;5070793;28;20063;-32
2021/12/13 09:22:01;;;;;;;9.63;3.10;;;;;;;9.55;100.00;102586.28;5066956;28;20052;-31
2021/12/13 09:24:34;;;;;;;12.88;3.65;;;;;;;9.56;100.00;102582.38;5054897;28;20473;-30
2021/12/13 09:27:25;;;;;;;15.80;3.70;;;;;;;9.58;100.00;102588.56;5070632;28;20044;-34
2021/12/13 09:30:01;;;;;;;15.25;3.53;;;;;;;9.58;100.00;102581.06;5053255;28;20041;-33
2021/12/13 09:32:36;;;;;;;14.55;3.60;;;;;;;9.62;100.00;102586.94;5074988;28;20398;-32
2021/12/13 09:35:27;;;;;;;11.95;3.47;;;;;;;9.65;100.00;102586.44;5074705;28;20044;-34
2021/12/13 09:37:57;;;;;;;13.55;3.90;;;;;;;9.65;100.00;102590.06;5073282;28;20481;-33
2021/12/13 09:40:38;;;;;;;15.70;4.50;;;;;;;9.71;100.00;102592.97;5074340;28;20405;-34
2021/12/13 09:43:07;;;;;;;10.88;3.13;;;;;;;9.73;100.00;102593.56;5072948;28;20285;-41
2021/12/13 09:45:39;;;;;;;15.52;4.05;;;;;;;9.76;100.00;102598.63;5074431;28;20446;-38
2021/12/13 09:48:21;;;;;;;13.60;3.53;;;;;;;9.76;100.00;102616.22;5074226;28;20151;-31
2021/12/13 09:50:54;;;;;;;13.65;3.78;;;;;;;9.76;100.00;102610.63;5073879;28;20044;-39
2021/12/13 09:53:25;;;;;;;14.95;3.10;;;;;;;9.80;100.00;102599.81;5073995;28;20064;-32
2021/12/13 09:55:54;;;;;;;13.80;3.45;;;;;;;9.79;100.00;102598.97;5074575;28;20040;-34
2021/12/13 09:58:25;;;;;;;11.40;3.17;;;;;;;9.81;100.00;102595.91;5073360;28;20513;-36
2021/12/13 10:00:57;;;;;;;16.17;3.50;;;;;;;9.80;100.00;102597.84;5074306;28;20106;-37
2021/12/13 10:03:31;;;;;;;16.77;4.15;;;;;;;9.82;100.00;102592.03;5073577;28;20052;-32
2021/12/13 10:06:04;;;;;;;15.23;3.45;;;;;;;9.83;100.00;102600.16;5074411;28;20496;-37
2021/12/13 10:08:40;;;;;;;16.90;3.47;;;;;;;9.86;100.00;102604.38;5071664;28;20051;-36
2021/12/13 10:11:15;;;;;;;14.00;3.50;;;;;;;9.85;100.00;102603.53;5073764;28;20052;-32
2021/12/13 10:13:43;;;;;;;11.13;3.35;;;;;;;9.83;100.00;102610.47;5071047;28;20048;-37
2021/12/13 10:16:16;;;;;;;16.08;3.20;;;;;;;9.88;100.00;102611.41;5074052;28;20044;-35
2021/12/13 10:18:47;;;;;;;14.77;3.42;;;;;;;9.88;100.00;102616.97;5073314;28;20079;-33
2021/12/13 10:21:22;;;;;;;11.60;2.78;;;;;;;9.87;100.00;102615.28;5057432;28;20057;-33
2021/12/13 10:23:53;;;;;;;13.77;3.17;;;;;;;9.89;100.00;102618.66;5074146;28;20049;-35
2021/12/13 10:26:27;;;;;;;17.80;3.50;;;;;;;9.93;100.00;102616.22;5073296;28;20468;-37
2021/12/13 10:28:57;;;;;;;11.63;3.55;;;;;;;9.95;100.00;102614.03;5073637;28;20079;-29
2021/12/13 10:31:32;;;;;;;16.30;3.17;;;;;;;9.97;100.00;102612.69;5073703;28;20437;-40
2021/12/13 10:34:02;;;;;;;15.40;3.35;;;;;;;10.01;100.00;102608.28;5071200;28;20460;-38
2021/12/13 10:36:32;;;;;;;14.82;3.35;;;;;;;10.03;100.00;102608.88;5073496;28;20106;-38
2021/12/13 10:39:05;;;;;;;14.63;3.63;;;;;;;10.09;100.00;102614.53;5072722;28;20094;-38
2021/12/13 10:41:58;;;;;;;16.73;3.80;;;;;;;10.13;100.00;102611.00;5072954;28;20052;-28
2021/12/13 10:44:30;;;;;;;18.73;4.00;;;;;;;10.17;100.00;102612.19;5073172;28;20052;-34
2021/12/13 10:47:06;;;;;;;13.43;3.30;;;;;;;10.24;100.00;102604.50;5072959;28;20413;-36
2021/12/13 10:49:36;;;;;;;14.38;3.10;;;;;;;10.29;100.00;102610.19;5073478;28;20395;-40
2021/12/13 10:52:09;;;;;;;16.90;4.25;;;;;;;10.34;100.00;102610.28;5072909;28;20060;-34
2021/12/13 10:54:44;;;;;;;14.63;3.63;;;;;;;10.39;100.00;102609.50;5069636;28;20408;-35
2021/12/13 10:57:17;;;;;;;16.10;3.83;;;;;;;10.44;100.00;102603.13;5072999;28;20049;-34
2021/12/13 10:59:47;;;;;;;13.90;3.53;;;;;;;10.47;100.00;102600.69;5072756;28;20045;-32
2021/12/13 11:02:23;;;;;;;14.30;3.83;;;;;;;10.52;100.00;102609.16;5073438;28;20401;-34
2021/12/13 11:04:54;;;;;;;11.98;3.50;;;;;;;10.54;100.00;102601.34;5072948;28;20051;-33
2021/12/13 11:07:24;;;;;;;13.63;3.85;;;;;;;10.54;100.00;102606.94;5072538;28;20424;-36
2021/12/13 11:09:55;;;;;;;9.27;3.45;;;;;;;10.56;100.00;102604.75;5072302;28;20056;-37
2021/12/13 11:12:26;;;;;;;12.27;4.10;;;;;;;10.54;100.00;102603.31;5073075;28;20048;-34
2021/12/13 11:14:57;;;;;;;11.95;3.88;;;;;;;10.51;100.00;102599.06;5072135;28;20048;-33
2021/12/13 11:17:29;;;;;;;14.48;3.80;;;;;;;10.52;100.00;102609.16;5072833;28;20559;-35
2021/12/13 11:20:01;;;;;;;10.00;3.20;;;;;;;10.48;100.00;102607.97;5072416;28;20050;-34
2021/12/13 11:22:32;;;;;;;13.98;4.03;;;;;;;10.45;100.00;102602.03;5072323;28;20055;-38
2021/12/13 11:25:05;;;;;;;12.80;3.63;;;;;;;10.41;100.00;102618.44;5072392;28;20052;-39
2021/12/13 11:27:35;;;;;;;16.33;3.88;;;;;;;10.41;100.00;102612.88;5072762;28;20050;-36
2021/12/13 11:30:08;;;;;;;15.75;3.85;;;;;;;10.39;100.00;102597.50;5071661;28;20053;-36
2021/12/13 11:33:09;;;;;;;10.93;3.53;;;;;;;10.42;100.00;102608.13;5071936;28;20052;-41
2021/12/13 11:36:15;;;;;;;17.73;4.00;;;;;;;10.40;100.00;102610.31;5070479;28;20529;-33
2021/12/13 11:39:18;;;;;;;7.82;2.97;;;;;;;10.39;100.00;102603.09;5071011;28;20135;-31
2021/12/13 11:42:08;;;;;;;13.30;3.53;;;;;;;10.38;100.00;102609.75;5069261;28;20045;-38
2021/12/13 11:44:54;;;;;;;15.20;3.58;;;;;;;10.38;100.00;102621.78;5070954;28;20486;-41
2021/12/13 11:48:05;;;;;;;13.65;3.42;;;;;;;10.39;100.00;102608.66;5069541;28;20063;-37
2021/12/13 11:50:59;;;;;;;14.73;3.40;;;;;;;10.41;100.00;102610.06;5070419;28;20067;-32
2021/12/13 11:53:46;;;;;;;11.60;3.38;;;;;;;10.41;100.00;102607.28;5063543;28;20064;-39
2021/12/13 11:56:46;;;;;;;14.32;3.60;;;;;;;10.42;100.00;102614.56;5070059;28;20373;-39